sensor_id;sensor_type;location;lat;lon;timestamp;pressure;altitude;pressure_sealevel;temperature;humidity
13050;BME280;6591;51.446;5.404;2023-06-14T00:01:59;101078.91;;;25.07;28.13
13050;BME280;6591;51.446;5.404;2023-06-14T00:04:26;101076.84;;;25.01;28.32
13050;BME280;6591;51.446;5.404;2023-06-14T00:06:53;101076.47;;;24.96;28.59
13050;BME280;6591;51.446;5.404;2023-06-14T00:09:23;101071.66;;;24.90;28.29
13050;BME280;6591;51.446;5.404;2023-06-14T00:11:50;101073.97;;;24.85;28.55
13050;BME280;6591;51.446;5.404;2023-06-14T00:14:17;101071.72;;;24.80;28.46
13050;BME280;6591;51.446;5.404;2023-06-14T00:16:45;101081.16;;;24.76;28.52
13050;BME280;6591;51.446;5.404;2023-06-14T00:19:12;101079.91;;;24.71;29.02
13050;BME280;6591;51.446;5.404;2023-06-14T00:21:39;101081.25;;;24.67;28.56
13050;BME280;6591;51.446;5.404;2023-06-14T00:24:07;101081.84;;;24.61;29.22
13050;BME280;6591;51.446;5.404;2023-06-14T00:26:35;101079.47;;;24.58;28.95
13050;BME280;6591;51.446;5.404;2023-06-14T00:29:02;101084.50;;;24.53;29.13
13050;BME280;6591;51.446;5.404;2023-06-14T00:31:30;101085.81;;;24.48;29.10
13050;BME280;6591;51.446;5.404;2023-06-14T00:33:57;101081.69;;;24.44;29.22
13050;BME280;6591;51.446;5.404;2023-06-14T00:36:24;101091.16;;;24.40;29.48
13050;BME280;6591;51.446;5.404;2023-06-14T00:38:51;101084.47;;;24.35;29.46
13050;BME280;6591;51.446;5.404;2023-06-14T00:41:18;101084.91;;;24.30;29.36
13050;BME280;6591;51.446;5.404;2023-06-14T00:43:46;101082.81;;;24.24;29.38
13050;BME280;6591;51.446;5.404;2023-06-14T00:46:14;101084.13;;;24.20;29.62
13050;BME280;6591;51.446;5.404;2023-06-14T00:48:42;101081.97;;;24.14;29.63
13050;BME280;6591;51.446;5.404;2023-06-14T00:51:09;101077.88;;;24.10;29.58
13050;BME280;6591;51.446;5.404;2023-06-14T00:53:37;101084.59;;;24.06;29.57
13050;BME280;6591;51.446;5.404;2023-06-14T00:56:06;101084.03;;;24.02;29.93
13050;BME280;6591;51.446;5.404;2023-06-14T00:58:33;101077.38;;;23.97;29.53
13050;BME280;6591;51.446;5.404;2023-06-14T01:01:01;101090.50;;;23.92;29.54
13050;BME280;6591;51.446;5.404;2023-06-14T01:03:29;101080.81;;;23.89;29.91
13050;BME280;6591;51.446;5.404;2023-06-14T01:09:46;101089.59;;;23.74;30.08
13050;BME280;6591;51.446;5.404;2023-06-14T01:12:33;101084.31;;;23.72;30.12
13050;BME280;6591;51.446;5.404;2023-06-14T01:15:04;101084.31;;;23.72;29.91
13050;BME280;6591;51.446;5.404;2023-06-14T01:17:32;101082.59;;;23.71;29.92
13050;BME280;6591;51.446;5.404;2023-06-14T01:20:04;101083.75;;;23.69;29.82
13050;BME280;6591;51.446;5.404;2023-06-14T01:22:36;101083.03;;;23.67;30.32
13050;BME280;6591;51.446;5.404;2023-06-14T01:25:04;101082.34;;;23.64;30.16
13050;BME280;6591;51.446;5.404;2023-06-14T01:27:31;101088.06;;;23.61;30.23
13050;BME280;6591;51.446;5.404;2023-06-14T01:29:59;101093.78;;;23.58;30.38
13050;BME280;6591;51.446;5.404;2023-06-14T01:32:30;101086.97;;;23.54;30.08
13050;BME280;6591;51.446;5.404;2023-06-14T01:34:59;101091.78;;;23.51;30.13
13050;BME280;6591;51.446;5.404;2023-06-14T01:37:28;101088.66;;;23.46;30.33
13050;BME280;6591;51.446;5.404;2023-06-14T01:39:56;101089.63;;;23.45;29.80
13050;BME280;6591;51.446;5.404;2023-06-14T01:42:24;101085.25;;;23.44;29.98
13050;BME280;6591;51.446;5.404;2023-06-14T01:44:53;101085.38;;;23.42;30.42
13050;BME280;6591;51.446;5.404;2023-06-14T01:47:21;101079.97;;;23.42;30.16
13050;BME280;6591;51.446;5.404;2023-06-14T01:49:48;101078.25;;;23.41;30.09
13050;BME280;6591;51.446;5.404;2023-06-14T01:52:16;101086.38;;;23.41;30.04
13050;BME280;6591;51.446;5.404;2023-06-14T01:54:43;101081.94;;;23.40;29.88
13050;BME280;6591;51.446;5.404;2023-06-14T01:57:11;101080.41;;;23.38;29.91
13050;BME280;6591;51.446;5.404;2023-06-14T01:59:38;101084.97;;;23.37;30.35
13050;BME280;6591;51.446;5.404;2023-06-14T02:02:06;101075.13;;;23.36;30.20
13050;BME280;6591;51.446;5.404;2023-06-14T02:04:33;101083.38;;;23.35;30.42
13050;BME280;6591;51.446;5.404;2023-06-14T02:07:00;101085.25;;;23.34;29.76
13050;BME280;6591;51.446;5.404;2023-06-14T02:09:27;101082.56;;;23.34;30.28
13050;BME280;6591;51.446;5.404;2023-06-14T02:11:54;101080.97;;;23.32;29.78
13050;BME280;6591;51.446;5.404;2023-06-14T02:14:21;101087.53;;;23.29;29.81
13050;BME280;6591;51.446;5.404;2023-06-14T02:16:48;101085.13;;;23.26;30.18
13050;BME280;6591;51.446;5.404;2023-06-14T02:19:17;101089.00;;;23.23;29.92
13050;BME280;6591;51.446;5.404;2023-06-14T02:21:45;101085.69;;;23.20;30.10
13050;BME280;6591;51.446;5.404;2023-06-14T02:24:13;101088.56;;;23.18;30.57
13050;BME280;6591;51.446;5.404;2023-06-14T02:26:40;101086.00;;;23.17;30.14
13050;BME280;6591;51.446;5.404;2023-06-14T02:29:14;101084.41;;;23.14;30.23
13050;BME280;6591;51.446;5.404;2023-06-14T02:31:42;101088.28;;;23.12;30.35
13050;BME280;6591;51.446;5.404;2023-06-14T02:34:09;101092.97;;;23.10;30.07
13050;BME280;6591;51.446;5.404;2023-06-14T02:36:36;101095.00;;;23.08;30.17
13050;BME280;6591;51.446;5.404;2023-06-14T02:39:09;101092.69;;;23.03;30.31
13050;BME280;6591;51.446;5.404;2023-06-14T02:41:37;101092.13;;;23.00;30.38
13050;BME280;6591;51.446;5.404;2023-06-14T02:44:05;101097.13;;;22.95;30.61
13050;BME280;6591;51.446;5.404;2023-06-14T02:46:32;101095.72;;;22.91;30.59
13050;BME280;6591;51.446;5.404;2023-06-14T02:49:00;101096.84;;;22.88;30.25
13050;BME280;6591;51.446;5.404;2023-06-14T02:51:27;101099.84;;;22.85;30.68
13050;BME280;6591;51.446;5.404;2023-06-14T02:53:55;101104.53;;;22.83;30.45
13050;BME280;6591;51.446;5.404;2023-06-14T02:56:22;101092.28;;;22.79;30.81
13050;BME280;6591;51.446;5.404;2023-06-14T02:58:50;101096.16;;;22.76;30.68
13050;BME280;6591;51.446;5.404;2023-06-14T03:01:18;101096.53;;;22.72;30.60
13050;BME280;6591;51.446;5.404;2023-06-14T03:03:49;101101.38;;;22.68;30.88
13050;BME280;6591;51.446;5.404;2023-06-14T03:06:16;101099.94;;;22.64;30.78
13050;BME280;6591;51.446;5.404;2023-06-14T03:08:45;101100.19;;;22.61;30.60
13050;BME280;6591;51.446;5.404;2023-06-14T03:11:16;101108.63;;;22.58;30.80
13050;BME280;6591;51.446;5.404;2023-06-14T03:13:48;101118.03;;;22.54;30.86
13050;BME280;6591;51.446;5.404;2023-06-14T03:16:15;101122.84;;;22.51;31.15
13050;BME280;6591;51.446;5.404;2023-06-14T03:18:44;101117.84;;;22.46;31.22
13050;BME280;6591;51.446;5.404;2023-06-14T03:21:11;101124.41;;;22.44;30.97
13050;BME280;6591;51.446;5.404;2023-06-14T03:23:43;101120.28;;;22.39;31.10
13050;BME280;6591;51.446;5.404;2023-06-14T03:26:12;101123.38;;;22.35;30.91
13050;BME280;6591;51.446;5.404;2023-06-14T03:28:42;101111.13;;;22.31;31.30
13050;BME280;6591;51.446;5.404;2023-06-14T03:31:09;101119.41;;;22.29;31.15
13050;BME280;6591;51.446;5.404;2023-06-14T03:33:37;101115.38;;;22.24;30.90
13050;BME280;6591;51.446;5.404;2023-06-14T03:36:05;101121.91;;;22.21;31.49
13050;BME280;6591;51.446;5.404;2023-06-14T03:38:33;101133.16;;;22.17;31.37
13050;BME280;6591;51.446;5.404;2023-06-14T03:41:03;101129.88;;;22.13;31.51
13050;BME280;6591;51.446;5.404;2023-06-14T03:43:31;101131.97;;;22.10;31.66
13050;BME280;6591;51.446;5.404;2023-06-14T03:46:00;101132.38;;;22.05;31.59
13050;BME280;6591;51.446;5.404;2023-06-14T03:48:29;101135.50;;;22.01;31.71
13050;BME280;6591;51.446;5.404;2023-06-14T03:50:58;101136.50;;;22.00;31.95
13050;BME280;6591;51.446;5.404;2023-06-14T03:53:28;101132.22;;;21.97;31.58
13050;BME280;6591;51.446;5.404;2023-06-14T03:55:57;101133.34;;;21.94;31.80
13050;BME280;6591;51.446;5.404;2023-06-14T03:58:32;101138.00;;;21.92;31.71
13050;BME280;6591;51.446;5.404;2023-06-14T04:01:00;101135.44;;;21.91;31.79
13050;BME280;6591;51.446;5.404;2023-06-14T04:03:30;101138.25;;;21.89;32.27
13050;BME280;6591;51.446;5.404;2023-06-14T04:06:00;101139.25;;;21.88;32.31
13050;BME280;6591;51.446;5.404;2023-06-14T04:08:28;101139.13;;;21.90;32.18
13050;BME280;6591;51.446;5.404;2023-06-14T04:10:56;101147.25;;;21.90;32.41
13050;BME280;6591;51.446;5.404;2023-06-14T04:13:23;101139.97;;;21.90;32.02
13050;BME280;6591;51.446;5.404;2023-06-14T04:15:50;101146.13;;;21.92;32.44
13050;BME280;6591;51.446;5.404;2023-06-14T04:18:24;101148.72;;;21.94;32.32
13050;BME280;6591;51.446;5.404;2023-06-14T04:20:51;101153.13;;;21.95;32.03
13050;BME280;6591;51.446;5.404;2023-06-14T04:23:20;101151.28;;;21.95;32.27
13050;BME280;6591;51.446;5.404;2023-06-14T04:25:49;101156.41;;;21.98;32.25
13050;BME280;6591;51.446;5.404;2023-06-14T04:28:17;101156.16;;;22.02;32.43
13050;BME280;6591;51.446;5.404;2023-06-14T04:30:46;101152.31;;;22.04;32.53
13050;BME280;6591;51.446;5.404;2023-06-14T04:33:16;101157.31;;;22.09;32.77
13050;BME280;6591;51.446;5.404;2023-06-14T04:35:54;101161.47;;;22.13;32.44
13050;BME280;6591;51.446;5.404;2023-06-14T04:38:23;101150.13;;;22.19;32.53
13050;BME280;6591;51.446;5.404;2023-06-14T04:40:53;101149.84;;;22.22;32.68
13050;BME280;6591;51.446;5.404;2023-06-14T04:43:22;101152.00;;;22.28;32.54
13050;BME280;6591;51.446;5.404;2023-06-14T04:45:56;101150.44;;;22.35;32.70
13050;BME280;6591;51.446;5.404;2023-06-14T04:48:25;101155.16;;;22.43;32.73
13050;BME280;6591;51.446;5.404;2023-06-14T04:50:54;101158.19;;;22.49;32.88
13050;BME280;6591;51.446;5.404;2023-06-14T04:53:23;101163.75;;;22.57;32.30
13050;BME280;6591;51.446;5.404;2023-06-14T04:55:55;101162.22;;;22.64;32.62
13050;BME280;6591;51.446;5.404;2023-06-14T04:58:22;101161.41;;;22.73;32.75
13050;BME280;6591;51.446;5.404;2023-06-14T05:00:49;101161.41;;;22.83;32.50
13050;BME280;6591;51.446;5.404;2023-06-14T05:03:16;101163.44;;;22.91;32.78
13050;BME280;6591;51.446;5.404;2023-06-14T05:05:46;101163.56;;;22.99;32.57
13050;BME280;6591;51.446;5.404;2023-06-14T05:08:13;101162.88;;;23.06;32.67
13050;BME280;6591;51.446;5.404;2023-06-14T05:10:40;101162.00;;;23.15;32.56
13050;BME280;6591;51.446;5.404;2023-06-14T05:13:08;101169.28;;;23.24;32.79
13050;BME280;6591;51.446;5.404;2023-06-14T05:15:35;101172.81;;;23.35;32.54
13050;BME280;6591;51.446;5.404;2023-06-14T05:18:02;101164.00;;;23.42;32.33
13050;BME280;6591;51.446;5.404;2023-06-14T05:20:30;101170.44;;;23.51;32.55
13050;BME280;6591;51.446;5.404;2023-06-14T05:22:57;101172.00;;;23.63;32.38
13050;BME280;6591;51.446;5.404;2023-06-14T05:25:24;101175.41;;;23.75;32.50
13050;BME280;6591;51.446;5.404;2023-06-14T05:27:51;101167.94;;;23.86;32.49
13050;BME280;6591;51.446;5.404;2023-06-14T05:30:18;101180.31;;;23.98;32.35
13050;BME280;6591;51.446;5.404;2023-06-14T05:32:46;101172.13;;;24.08;31.93
13050;BME280;6591;51.446;5.404;2023-06-14T05:35:13;101176.41;;;24.20;32.32
13050;BME280;6591;51.446;5.404;2023-06-14T05:37:41;101184.06;;;24.34;31.88
13050;BME280;6591;51.446;5.404;2023-06-14T05:40:09;101183.88;;;24.45;32.14
13050;BME280;6591;51.446;5.404;2023-06-14T05:42:39;101177.38;;;24.56;31.64
13050;BME280;6591;51.446;5.404;2023-06-14T05:45:07;101178.88;;;24.68;31.25
13050;BME280;6591;51.446;5.404;2023-06-14T05:47:34;101184.97;;;24.80;31.50
13050;BME280;6591;51.446;5.404;2023-06-14T05:50:01;101175.78;;;24.91;31.39
13050;BME280;6591;51.446;5.404;2023-06-14T05:52:28;101184.72;;;25.01;31.41
13050;BME280;6591;51.446;5.404;2023-06-14T05:54:56;101184.63;;;25.10;31.18
13050;BME280;6591;51.446;5.404;2023-06-14T05:57:23;101186.41;;;25.19;31.15
13050;BME280;6591;51.446;5.404;2023-06-14T05:59:50;101187.75;;;25.33;30.96
13050;BME280;6591;51.446;5.404;2023-06-14T06:02:18;101194.78;;;25.44;31.05
13050;BME280;6591;51.446;5.404;2023-06-14T06:04:45;101196.41;;;25.54;30.91
13050;BME280;6591;51.446;5.404;2023-06-14T06:07:12;101190.06;;;25.63;31.04
13050;BME280;6591;51.446;5.404;2023-06-14T06:09:39;101198.81;;;25.75;30.69
13050;BME280;6591;51.446;5.404;2023-06-14T06:12:07;101205.56;;;25.89;30.98
13050;BME280;6591;51.446;5.404;2023-06-14T06:14:34;101207.53;;;26.04;30.42
13050;BME280;6591;51.446;5.404;2023-06-14T06:17:01;101207.50;;;26.22;30.53
13050;BME280;6591;51.446;5.404;2023-06-14T06:19:28;101206.75;;;26.38;30.63
13050;BME280;6591;51.446;5.404;2023-06-14T06:21:55;101201.53;;;26.52;30.26
13050;BME280;6591;51.446;5.404;2023-06-14T06:24:22;101203.63;;;26.67;30.22
13050;BME280;6591;51.446;5.404;2023-06-14T06:26:49;101211.34;;;26.79;30.05
13050;BME280;6591;51.446;5.404;2023-06-14T06:29:16;101208.16;;;26.92;29.90
13050;BME280;6591;51.446;5.404;2023-06-14T06:31:44;101210.72;;;27.02;29.74
13050;BME280;6591;51.446;5.404;2023-06-14T06:34:12;101208.69;;;27.12;29.83
13050;BME280;6591;51.446;5.404;2023-06-14T06:36:39;101215.53;;;27.24;29.37
13050;BME280;6591;51.446;5.404;2023-06-14T06:39:06;101223.41;;;27.35;29.19
13050;BME280;6591;51.446;5.404;2023-06-14T06:41:40;101224.78;;;27.47;29.17
13050;BME280;6591;51.446;5.404;2023-06-14T06:44:07;101233.03;;;27.63;29.02
13050;BME280;6591;51.446;5.404;2023-06-14T06:46:39;101235.91;;;27.78;28.92
13050;BME280;6591;51.446;5.404;2023-06-14T06:49:10;101234.19;;;27.93;28.64
13050;BME280;6591;51.446;5.404;2023-06-14T06:51:42;101239.63;;;28.09;28.37
13050;BME280;6591;51.446;5.404;2023-06-14T06:54:11;101239.94;;;28.31;28.26
13050;BME280;6591;51.446;5.404;2023-06-14T06:56:38;101233.06;;;28.51;28.24
13050;BME280;6591;51.446;5.404;2023-06-14T06:59:05;101240.66;;;28.72;27.99
13050;BME280;6591;51.446;5.404;2023-06-14T07:01:33;101241.78;;;28.93;27.85
13050;BME280;6591;51.446;5.404;2023-06-14T07:04:00;101235.16;;;29.11;27.46
13050;BME280;6591;51.446;5.404;2023-06-14T07:06:29;101238.81;;;29.26;27.22
13050;BME280;6591;51.446;5.404;2023-06-14T07:08:57;101248.38;;;29.38;27.34
13050;BME280;6591;51.446;5.404;2023-06-14T07:11:28;101248.44;;;29.53;26.50
13050;BME280;6591;51.446;5.404;2023-06-14T07:13:55;101246.78;;;29.66;26.69
13050;BME280;6591;51.446;5.404;2023-06-14T07:16:22;101251.47;;;29.80;26.55
13050;BME280;6591;51.446;5.404;2023-06-14T07:18:50;101251.91;;;29.92;26.72
13050;BME280;6591;51.446;5.404;2023-06-14T07:21:17;101256.66;;;29.98;26.47
13050;BME280;6591;51.446;5.404;2023-06-14T07:23:44;101260.72;;;30.02;26.11
13050;BME280;6591;51.446;5.404;2023-06-14T07:26:12;101259.28;;;30.06;26.29
13050;BME280;6591;51.446;5.404;2023-06-14T07:28:39;101259.41;;;30.13;25.97
13050;BME280;6591;51.446;5.404;2023-06-14T07:31:06;101265.00;;;30.19;26.01
13050;BME280;6591;51.446;5.404;2023-06-14T07:33:33;101258.38;;;30.28;26.28
13050;BME280;6591;51.446;5.404;2023-06-14T07:36:01;101263.19;;;30.41;25.85
13050;BME280;6591;51.446;5.404;2023-06-14T07:38:28;101273.66;;;30.60;25.80
13050;BME280;6591;51.446;5.404;2023-06-14T07:40:55;101262.75;;;30.82;25.08
13050;BME280;6591;51.446;5.404;2023-06-14T07:43:22;101273.72;;;30.96;24.84
13050;BME280;6591;51.446;5.404;2023-06-14T07:45:49;101276.00;;;31.07;24.81
13050;BME280;6591;51.446;5.404;2023-06-14T07:48:31;101274.06;;;31.23;24.50
13050;BME280;6591;51.446;5.404;2023-06-14T07:50:59;101271.66;;;31.34;24.32
13050;BME280;6591;51.446;5.404;2023-06-14T07:53:28;101269.91;;;31.48;24.63
13050;BME280;6591;51.446;5.404;2023-06-14T07:55:55;101277.00;;;31.57;24.49
13050;BME280;6591;51.446;5.404;2023-06-14T07:58:22;101276.88;;;31.65;23.91
13050;BME280;6591;51.446;5.404;2023-06-14T08:00:49;101291.50;;;31.72;24.28
13050;BME280;6591;51.446;5.404;2023-06-14T08:03:16;101287.34;;;31.76;23.60
13050;BME280;6591;51.446;5.404;2023-06-14T08:05:45;101293.72;;;31.83;23.78
13050;BME280;6591;51.446;5.404;2023-06-14T08:08:12;101296.19;;;32.00;24.02
13050;BME280;6591;51.446;5.404;2023-06-14T08:10:39;101294.50;;;32.20;23.62
13050;BME280;6591;51.446;5.404;2023-06-14T08:13:06;101294.25;;;32.43;23.58
13050;BME280;6591;51.446;5.404;2023-06-14T08:15:33;101288.00;;;32.55;23.06
13050;BME280;6591;51.446;5.404;2023-06-14T08:18:00;101289.91;;;32.61;23.02
13050;BME280;6591;51.446;5.404;2023-06-14T08:20:28;101284.91;;;32.65;22.94
13050;BME280;6591;51.446;5.404;2023-06-14T08:22:57;101291.09;;;32.73;23.12
13050;BME280;6591;51.446;5.404;2023-06-14T08:25:25;101281.81;;;32.88;22.73
13050;BME280;6591;51.446;5.404;2023-06-14T08:27:52;101277.28;;;33.08;22.57
13050;BME280;6591;51.446;5.404;2023-06-14T08:30:19;101281.16;;;33.20;22.30
13050;BME280;6591;51.446;5.404;2023-06-14T08:32:46;101278.44;;;33.27;22.59
13050;BME280;6591;51.446;5.404;2023-06-14T08:35:22;101280.34;;;33.33;22.30
13050;BME280;6591;51.446;5.404;2023-06-14T08:37:51;101285.88;;;33.39;21.92
13050;BME280;6591;51.446;5.404;2023-06-14T08:40:23;101294.59;;;33.49;22.05
13050;BME280;6591;51.446;5.404;2023-06-14T08:42:53;101283.38;;;33.64;22.22
13050;BME280;6591;51.446;5.404;2023-06-14T08:45:24;101294.91;;;33.81;21.35
13050;BME280;6591;51.446;5.404;2023-06-14T08:47:55;101290.44;;;33.99;22.19
13050;BME280;6591;51.446;5.404;2023-06-14T08:50:28;101281.31;;;34.19;21.63
13050;BME280;6591;51.446;5.404;2023-06-14T08:53:02;101285.34;;;34.42;21.53
13050;BME280;6591;51.446;5.404;2023-06-14T08:55:31;101284.66;;;34.67;21.04
13050;BME280;6591;51.446;5.404;2023-06-14T08:58:04;101276.97;;;34.89;20.73
13050;BME280;6591;51.446;5.404;2023-06-14T09:00:33;101292.38;;;35.09;21.01
13050;BME280;6591;51.446;5.404;2023-06-14T09:03:01;101289.78;;;35.28;20.55
13050;BME280;6591;51.446;5.404;2023-06-14T09:05:30;101287.81;;;35.35;19.90
13050;BME280;6591;51.446;5.404;2023-06-14T09:07:57;101295.50;;;35.33;19.53
13050;BME280;6591;51.446;5.404;2023-06-14T09:10:32;101298.69;;;35.30;19.77
13050;BME280;6591;51.446;5.404;2023-06-14T09:13:02;101294.41;;;35.34;19.61
13050;BME280;6591;51.446;5.404;2023-06-14T09:15:31;101295.00;;;35.42;19.72
13050;BME280;6591;51.446;5.404;2023-06-14T09:18:01;101287.94;;;35.53;19.51
13050;BME280;6591;51.446;5.404;2023-06-14T09:20:30;101278.69;;;35.65;19.45
13050;BME280;6591;51.446;5.404;2023-06-14T09:22:58;101282.25;;;35.79;19.15
13050;BME280;6591;51.446;5.404;2023-06-14T09:25:25;101287.66;;;35.92;19.01
13050;BME280;6591;51.446;5.404;2023-06-14T09:28:09;101286.94;;;36.03;18.36
13050;BME280;6591;51.446;5.404;2023-06-14T09:30:38;101288.41;;;36.06;17.74
13050;BME280;6591;51.446;5.404;2023-06-14T09:33:06;101297.03;;;35.91;17.83
13050;BME280;6591;51.446;5.404;2023-06-14T09:35:34;101294.19;;;35.73;17.68
13050;BME280;6591;51.446;5.404;2023-06-14T09:38:01;101305.97;;;35.55;17.45
13050;BME280;6591;51.446;5.404;2023-06-14T09:40:28;101305.63;;;35.39;17.07
13050;BME280;6591;51.446;5.404;2023-06-14T09:42:55;101298.94;;;35.21;16.52
13050;BME280;6591;51.446;5.404;2023-06-14T09:45:26;101298.53;;;35.11;17.64
13050;BME280;6591;51.446;5.404;2023-06-14T09:47:58;101301.06;;;35.13;17.56
13050;BME280;6591;51.446;5.404;2023-06-14T09:50:28;101304.91;;;35.18;17.42
13050;BME280;6591;51.446;5.404;2023-06-14T09:53:02;101301.91;;;35.13;16.54
13050;BME280;6591;51.446;5.404;2023-06-14T09:55:34;101307.91;;;35.10;16.68
13050;BME280;6591;51.446;5.404;2023-06-14T09:58:06;101306.66;;;35.06;16.93
13050;BME280;6591;51.446;5.404;2023-06-14T10:00:36;101299.22;;;35.07;16.49
13050;BME280;6591;51.446;5.404;2023-06-14T10:05:45;101288.97;;;35.20;16.64
13050;BME280;6591;51.446;5.404;2023-06-14T10:08:19;101292.28;;;35.36;16.89
13050;BME280;6591;51.446;5.404;2023-06-14T10:10:47;101293.09;;;35.43;16.37
13050;BME280;6591;51.446;5.404;2023-06-14T10:13:15;101288.19;;;35.45;16.65
13050;BME280;6591;51.446;5.404;2023-06-14T10:16:16;101290.72;;;35.46;16.48
13050;BME280;6591;51.446;5.404;2023-06-14T10:24:10;101284.09;;;36.17;16.92
13050;BME280;6591;51.446;5.404;2023-06-14T10:26:57;101281.28;;;36.41;16.12
13050;BME280;6591;51.446;5.404;2023-06-14T10:29:28;101286.28;;;36.51;15.61
13050;BME280;6591;51.446;5.404;2023-06-14T10:32:00;101285.28;;;36.45;16.24
13050;BME280;6591;51.446;5.404;2023-06-14T10:34:29;101289.19;;;36.38;15.75
13050;BME280;6591;51.446;5.404;2023-06-14T10:37:13;101286.72;;;36.30;15.70
13050;BME280;6591;51.446;5.404;2023-06-14T10:39:45;101286.81;;;36.41;16.13
13050;BME280;6591;51.446;5.404;2023-06-14T10:42:16;101286.44;;;36.56;16.09
13050;BME280;6591;51.446;5.404;2023-06-14T10:44:50;101286.72;;;36.73;16.18
13050;BME280;6591;51.446;5.404;2023-06-14T10:52:33;101284.97;;;36.78;15.25
13050;BME280;6591;51.446;5.404;2023-06-14T10:57:39;101297.16;;;36.53;15.51
13050;BME280;6591;51.446;5.404;2023-06-14T11:00:22;101296.72;;;36.49;15.82
13050;BME280;6591;51.446;5.404;2023-06-14T11:05:57;101282.31;;;36.65;15.58
13050;BME280;6591;51.446;5.404;2023-06-14T11:11:22;101297.41;;;36.69;15.28
13050;BME280;6591;51.446;5.404;2023-06-14T11:13:51;101288.75;;;36.59;15.49
13050;BME280;6591;51.446;5.404;2023-06-14T11:16:19;101285.81;;;36.54;15.86
13050;BME280;6591;51.446;5.404;2023-06-14T11:18:47;101282.91;;;36.49;15.37
13050;BME280;6591;51.446;5.404;2023-06-14T11:21:18;101276.97;;;36.45;15.33
13050;BME280;6591;51.446;5.404;2023-06-14T11:23:50;101281.50;;;36.40;15.49
13050;BME280;6591;51.446;5.404;2023-06-14T11:26:26;101279.50;;;36.29;15.25
13050;BME280;6591;51.446;5.404;2023-06-14T11:29:01;101289.00;;;36.15;15.79
13050;BME280;6591;51.446;5.404;2023-06-14T11:31:29;101285.69;;;35.99;15.39
13050;BME280;6591;51.446;5.404;2023-06-14T11:33:58;101277.50;;;35.86;15.77
13050;BME280;6591;51.446;5.404;2023-06-14T11:36:30;101276.09;;;35.77;15.67
13050;BME280;6591;51.446;5.404;2023-06-14T11:39:03;101276.09;;;35.77;15.96
13050;BME280;6591;51.446;5.404;2023-06-14T11:41:43;101269.91;;;35.75;16.51
13050;BME280;6591;51.446;5.404;2023-06-14T11:44:11;101264.81;;;35.79;16.34
13050;BME280;6591;51.446;5.404;2023-06-14T11:46:39;101270.16;;;35.74;15.96
13050;BME280;6591;51.446;5.404;2023-06-14T11:49:07;101276.38;;;35.69;16.13
13050;BME280;6591;51.446;5.404;2023-06-14T11:51:36;101270.16;;;35.74;16.47
13050;BME280;6591;51.446;5.404;2023-06-14T11:54:06;101270.03;;;35.87;16.45
13050;BME280;6591;51.446;5.404;2023-06-14T11:56:33;101273.16;;;35.97;16.49
13050;BME280;6591;51.446;5.404;2023-06-14T11:59:03;101273.09;;;36.03;16.14
13050;BME280;6591;51.446;5.404;2023-06-14T12:01:36;101266.66;;;36.09;16.34
13050;BME280;6591;51.446;5.404;2023-06-14T12:04:05;101271.03;;;36.24;15.99
13050;BME280;6591;51.446;5.404;2023-06-14T12:06:33;101273.88;;;36.35;16.41
13050;BME280;6591;51.446;5.404;2023-06-14T12:09:04;101279.38;;;36.42;16.18
13050;BME280;6591;51.446;5.404;2023-06-14T12:11:35;101275.91;;;36.46;16.37
13050;BME280;6591;51.446;5.404;2023-06-14T12:14:04;101273.06;;;36.53;16.03
13050;BME280;6591;51.446;5.404;2023-06-14T12:16:38;101271.97;;;36.54;15.93
13050;BME280;6591;51.446;5.404;2023-06-14T12:19:13;101279.13;;;36.68;16.00
13050;BME280;6591;51.446;5.404;2023-06-14T12:21:41;101267.63;;;36.83;16.06
13050;BME280;6591;51.446;5.404;2023-06-14T12:24:09;101268.31;;;36.97;16.25
13050;BME280;6591;51.446;5.404;2023-06-14T12:26:41;101274.00;;;37.20;16.13
13050;BME280;6591;51.446;5.404;2023-06-14T12:29:08;101275.47;;;37.52;15.79
13050;BME280;6591;51.446;5.404;2023-06-14T12:31:35;101276.28;;;37.83;15.73
13050;BME280;6591;51.446;5.404;2023-06-14T12:34:03;101277.06;;;38.01;15.68
13050;BME280;6591;51.446;5.404;2023-06-14T12:36:30;101269.47;;;38.08;15.55
13050;BME280;6591;51.446;5.404;2023-06-14T12:38:59;101277.31;;;38.00;15.49
13050;BME280;6591;51.446;5.404;2023-06-14T12:41:26;101269.53;;;37.79;15.37
13050;BME280;6591;51.446;5.404;2023-06-14T12:43:54;101274.63;;;37.52;15.01
13050;BME280;6591;51.446;5.404;2023-06-14T12:46:21;101278.28;;;37.34;15.26
13050;BME280;6591;51.446;5.404;2023-06-14T12:48:49;101277.91;;;37.30;15.71
13050;BME280;6591;51.446;5.404;2023-06-14T12:51:16;101276.97;;;37.37;15.08
13050;BME280;6591;51.446;5.404;2023-06-14T12:53:43;101273.38;;;37.48;15.74
13050;BME280;6591;51.446;5.404;2023-06-14T12:56:10;101278.03;;;37.65;15.21
13050;BME280;6591;51.446;5.404;2023-06-14T12:58:37;101284.13;;;37.86;15.39
13050;BME280;6591;51.446;5.404;2023-06-14T13:01:04;101275.97;;;38.02;15.26
13050;BME280;6591;51.446;5.404;2023-06-14T13:03:32;101283.56;;;38.07;14.85
13050;BME280;6591;51.446;5.404;2023-06-14T13:06:01;101290.22;;;38.17;14.62
13050;BME280;6591;51.446;5.404;2023-06-14T13:08:28;101279.13;;;38.41;15.20
13050;BME280;6591;51.446;5.404;2023-06-14T13:10:55;101288.41;;;38.70;14.59
13050;BME280;6591;51.446;5.404;2023-06-14T13:13:23;101288.97;;;38.95;14.82
13050;BME280;6591;51.446;5.404;2023-06-14T13:15:50;101286.75;;;39.20;14.55
13050;BME280;6591;51.446;5.404;2023-06-14T13:18:17;101285.81;;;39.31;14.36
13050;BME280;6591;51.446;5.404;2023-06-14T13:20:46;101295.16;;;39.37;13.74
13050;BME280;6591;51.446;5.404;2023-06-14T13:23:15;101291.38;;;39.31;14.25
13050;BME280;6591;51.446;5.404;2023-06-14T13:25:42;101284.16;;;39.30;13.94
13050;BME280;6591;51.446;5.404;2023-06-14T13:28:09;101282.69;;;39.39;13.99
13050;BME280;6591;51.446;5.404;2023-06-14T13:30:37;101279.50;;;39.48;13.98
13050;BME280;6591;51.446;5.404;2023-06-14T13:33:04;101284.56;;;39.51;13.93
13050;BME280;6591;51.446;5.404;2023-06-14T13:35:31;101276.16;;;39.62;13.87